sensor_id;sensor_type;location;lat;lon;timestamp;P1;durP1;ratioP1;P2;durP2;ratioP2
13592;SDS011;6867;50.998;4.250;2023-03-14T00:01:26;1.73;;;0.80;;
13592;SDS011;6867;50.998;4.250;2023-03-14T00:03:53;4.70;;;1.10;;
13592;SDS011;6867;50.998;4.250;2023-03-14T00:06:20;7.17;;;1.50;;
13592;SDS011;6867;50.998;4.250;2023-03-14T00:08:47;2.90;;;1.00;;
13592;SDS011;6867;50.998;4.250;2023-03-14T00:11:16;2.40;;;0.83;;
13592;SDS011;6867;50.998;4.250;2023-03-14T00:13:47;2.00;;;0.80;;
13592;SDS011;6867;50.998;4.250;2023-03-14T00:16:16;4.40;;;1.00;;
13592;SDS011;6867;50.998;4.250;2023-03-14T00:18:44;3.73;;;1.20;;
13592;SDS011;6867;50.998;4.250;2023-03-14T00:21:10;6.50;;;1.27;;
13592;SDS011;6867;50.998;4.250;2023-03-14T00:23:38;5.13;;;1.03;;
13592;SDS011;6867;50.998;4.250;2023-03-14T00:26:07;6.10;;;1.50;;
13592;SDS011;6867;50.998;4.250;2023-03-14T00:28:37;3.90;;;1.10;;
13592;SDS011;6867;50.998;4.250;2023-03-14T00:31:04;6.57;;;1.70;;
13592;SDS011;6867;50.998;4.250;2023-03-14T00:33:32;7.37;;;1.43;;
13592;SDS011;6867;50.998;4.250;2023-03-14T00:35:59;7.00;;;1.50;;
13592;SDS011;6867;50.998;4.250;2023-03-14T00:38:27;4.03;;;1.30;;
13592;SDS011;6867;50.998;4.250;2023-03-14T00:40:54;11.97;;;1.87;;
13592;SDS011;6867;50.998;4.250;2023-03-14T00:43:21;4.83;;;1.40;;
13592;SDS011;6867;50.998;4.250;2023-03-14T00:45:50;6.10;;;1.47;;
13592;SDS011;6867;50.998;4.250;2023-03-14T00:48:18;3.93;;;1.30;;
13592;SDS011;6867;50.998;4.250;2023-03-14T00:50:45;6.00;;;1.70;;
13592;SDS011;6867;50.998;4.250;2023-03-14T00:53:13;7.80;;;1.40;;
13592;SDS011;6867;50.998;4.250;2023-03-14T00:55:40;10.17;;;2.00;;
13592;SDS011;6867;50.998;4.250;2023-03-14T00:58:08;5.20;;;1.30;;
13592;SDS011;6867;50.998;4.250;2023-03-14T01:00:36;8.97;;;1.63;;
13592;SDS011;6867;50.998;4.250;2023-03-14T01:03:04;6.07;;;1.70;;
13592;SDS011;6867;50.998;4.250;2023-03-14T01:05:32;4.60;;;1.50;;
13592;SDS011;6867;50.998;4.250;2023-03-14T01:07:58;6.73;;;1.40;;
13592;SDS011;6867;50.998;4.250;2023-03-14T01:10:25;5.70;;;1.20;;
13592;SDS011;6867;50.998;4.250;2023-03-14T01:12:52;8.30;;;1.50;;
13592;SDS011;6867;50.998;4.250;2023-03-14T01:15:19;4.53;;;1.67;;
13592;SDS011;6867;50.998;4.250;2023-03-14T01:17:46;8.33;;;1.47;;
13592;SDS011;6867;50.998;4.250;2023-03-14T01:20:15;7.10;;;1.40;;
13592;SDS011;6867;50.998;4.250;2023-03-14T01:22:42;4.43;;;1.80;;
13592;SDS011;6867;50.998;4.250;2023-03-14T01:25:10;3.70;;;1.30;;
13592;SDS011;6867;50.998;4.250;2023-03-14T01:27:38;8.00;;;1.87;;
13592;SDS011;6867;50.998;4.250;2023-03-14T01:30:06;3.57;;;1.40;;
13592;SDS011;6867;50.998;4.250;2023-03-14T01:32:33;4.57;;;1.50;;
13592;SDS011;6867;50.998;4.250;2023-03-14T01:35:00;6.80;;;1.53;;
13592;SDS011;6867;50.998;4.250;2023-03-14T01:37:28;6.93;;;1.50;;
13592;SDS011;6867;50.998;4.250;2023-03-14T01:39:55;5.30;;;1.17;;
13592;SDS011;6867;50.998;4.250;2023-03-14T01:42:22;7.00;;;1.20;;
13592;SDS011;6867;50.998;4.250;2023-03-14T01:44:49;3.53;;;1.40;;
13592;SDS011;6867;50.998;4.250;2023-03-14T01:47:18;8.60;;;1.43;;
13592;SDS011;6867;50.998;4.250;2023-03-14T01:49:45;4.70;;;1.40;;
13592;SDS011;6867;50.998;4.250;2023-03-14T01:52:15;5.70;;;1.50;;
13592;SDS011;6867;50.998;4.250;2023-03-14T01:54:46;6.03;;;1.20;;
13592;SDS011;6867;50.998;4.250;2023-03-14T01:57:17;6.40;;;1.57;;
13592;SDS011;6867;50.998;4.250;2023-03-14T01:59:50;10.17;;;1.80;;
13592;SDS011;6867;50.998;4.250;2023-03-14T02:02:20;4.13;;;1.60;;
13592;SDS011;6867;50.998;4.250;2023-03-14T02:04:47;4.87;;;1.60;;
13592;SDS011;6867;50.998;4.250;2023-03-14T02:07:16;3.97;;;1.07;;
13592;SDS011;6867;50.998;4.250;2023-03-14T02:09:47;5.00;;;1.43;;
13592;SDS011;6867;50.998;4.250;2023-03-14T02:12:15;4.87;;;1.50;;
13592;SDS011;6867;50.998;4.250;2023-03-14T02:14:43;7.80;;;1.53;;
13592;SDS011;6867;50.998;4.250;2023-03-14T02:17:13;6.77;;;1.30;;
13592;SDS011;6867;50.998;4.250;2023-03-14T02:20:08;1.67;;;1.00;;
13592;SDS011;6867;50.998;4.250;2023-03-14T02:22:42;5.47;;;1.10;;
13592;SDS011;6867;50.998;4.250;2023-03-14T02:25:13;4.53;;;0.93;;
13592;SDS011;6867;50.998;4.250;2023-03-14T02:27:44;5.80;;;1.67;;
13592;SDS011;6867;50.998;4.250;2023-03-14T02:30:13;4.37;;;1.47;;
13592;SDS011;6867;50.998;4.250;2023-03-14T02:32:43;3.87;;;0.63;;
13592;SDS011;6867;50.998;4.250;2023-03-14T02:35:14;3.77;;;1.03;;
13592;SDS011;6867;50.998;4.250;2023-03-14T02:37:46;3.73;;;0.93;;
13592;SDS011;6867;50.998;4.250;2023-03-14T02:40:17;2.30;;;0.70;;
13592;SDS011;6867;50.998;4.250;2023-03-14T02:42:45;5.50;;;0.90;;
13592;SDS011;6867;50.998;4.250;2023-03-14T02:48:15;4.33;;;0.80;;
13592;SDS011;6867;50.998;4.250;2023-03-14T02:50:45;5.23;;;1.30;;
13592;SDS011;6867;50.998;4.250;2023-03-14T02:53:15;4.60;;;1.10;;
13592;SDS011;6867;50.998;4.250;2023-03-14T02:55:44;7.30;;;1.00;;
13592;SDS011;6867;50.998;4.250;2023-03-14T02:58:13;3.87;;;0.90;;
13592;SDS011;6867;50.998;4.250;2023-03-14T03:00:40;3.77;;;1.20;;
13592;SDS011;6867;50.998;4.250;2023-03-14T03:03:07;4.27;;;1.30;;
13592;SDS011;6867;50.998;4.250;2023-03-14T03:05:34;7.07;;;1.77;;
13592;SDS011;6867;50.998;4.250;2023-03-14T03:08:01;5.20;;;1.27;;
13592;SDS011;6867;50.998;4.250;2023-03-14T03:10:28;5.90;;;1.97;;
13592;SDS011;6867;50.998;4.250;2023-03-14T03:12:55;6.27;;;1.60;;
13592;SDS011;6867;50.998;4.250;2023-03-14T03:15:23;2.93;;;1.53;;
13592;SDS011;6867;50.998;4.250;2023-03-14T03:17:51;8.00;;;1.70;;
13592;SDS011;6867;50.998;4.250;2023-03-14T03:20:18;4.17;;;1.20;;
13592;SDS011;6867;50.998;4.250;2023-03-14T03:22:44;6.77;;;1.40;;
13592;SDS011;6867;50.998;4.250;2023-03-14T03:25:11;3.97;;;1.40;;
13592;SDS011;6867;50.998;4.250;2023-03-14T03:27:38;6.60;;;1.77;;
13592;SDS011;6867;50.998;4.250;2023-03-14T03:30:05;8.03;;;1.53;;
13592;SDS011;6867;50.998;4.250;2023-03-14T03:32:35;6.13;;;1.80;;
13592;SDS011;6867;50.998;4.250;2023-03-14T03:35:02;3.13;;;1.43;;
13592;SDS011;6867;50.998;4.250;2023-03-14T03:37:30;8.80;;;1.60;;
13592;SDS011;6867;50.998;4.250;2023-03-14T03:39:57;7.90;;;2.03;;
13592;SDS011;6867;50.998;4.250;2023-03-14T03:42:23;10.67;;;2.33;;
13592;SDS011;6867;50.998;4.250;2023-03-14T03:44:50;6.77;;;2.20;;
13592;SDS011;6867;50.998;4.250;2023-03-14T03:47:17;5.87;;;2.07;;
13592;SDS011;6867;50.998;4.250;2023-03-14T03:49:45;7.30;;;1.83;;
13592;SDS011;6867;50.998;4.250;2023-03-14T03:52:11;11.40;;;2.17;;
13592;SDS011;6867;50.998;4.250;2023-03-14T03:54:38;6.77;;;2.23;;
13592;SDS011;6867;50.998;4.250;2023-03-14T03:57:05;7.00;;;2.47;;
13592;SDS011;6867;50.998;4.250;2023-03-14T03:59:31;7.03;;;2.23;;
13592;SDS011;6867;50.998;4.250;2023-03-14T04:01:58;5.53;;;2.07;;
13592;SDS011;6867;50.998;4.250;2023-03-14T04:04:25;4.83;;;1.93;;
13592;SDS011;6867;50.998;4.250;2023-03-14T04:06:53;4.40;;;1.80;;
13592;SDS011;6867;50.998;4.250;2023-03-14T04:09:20;5.03;;;1.90;;
13592;SDS011;6867;50.998;4.250;2023-03-14T04:11:47;4.53;;;2.23;;
13592;SDS011;6867;50.998;4.250;2023-03-14T04:14:13;6.27;;;2.40;;
13592;SDS011;6867;50.998;4.250;2023-03-14T04:16:40;7.30;;;2.60;;
13592;SDS011;6867;50.998;4.250;2023-03-14T04:19:07;7.00;;;2.13;;
13592;SDS011;6867;50.998;4.250;2023-03-14T04:21:33;7.57;;;2.13;;
13592;SDS011;6867;50.998;4.250;2023-03-14T04:24:01;10.10;;;2.30;;
13592;SDS011;6867;50.998;4.250;2023-03-14T04:26:28;6.00;;;1.93;;
13592;SDS011;6867;50.998;4.250;2023-03-14T04:28:55;6.47;;;2.13;;
13592;SDS011;6867;50.998;4.250;2023-03-14T04:31:22;4.23;;;1.93;;
13592;SDS011;6867;50.998;4.250;2023-03-14T04:33:49;4.20;;;1.90;;
13592;SDS011;6867;50.998;4.250;2023-03-14T04:36:15;4.60;;;1.80;;
13592;SDS011;6867;50.998;4.250;2023-03-14T04:38:42;4.10;;;2.23;;
13592;SDS011;6867;50.998;4.250;2023-03-14T04:41:10;5.73;;;2.10;;
13592;SDS011;6867;50.998;4.250;2023-03-14T04:43:37;5.13;;;1.90;;
13592;SDS011;6867;50.998;4.250;2023-03-14T04:46:03;4.20;;;1.90;;
13592;SDS011;6867;50.998;4.250;2023-03-14T04:48:30;3.70;;;2.07;;
13592;SDS011;6867;50.998;4.250;2023-03-14T04:50:57;6.23;;;1.90;;
13592;SDS011;6867;50.998;4.250;2023-03-14T04:53:24;3.97;;;1.60;;
13592;SDS011;6867;50.998;4.250;2023-03-14T04:55:51;3.63;;;1.87;;
13592;SDS011;6867;50.998;4.250;2023-03-14T04:58:21;5.27;;;1.80;;
13592;SDS011;6867;50.998;4.250;2023-03-14T05:00:48;4.67;;;2.07;;
13592;SDS011;6867;50.998;4.250;2023-03-14T05:03:15;2.93;;;2.13;;
13592;SDS011;6867;50.998;4.250;2023-03-14T05:05:42;5.93;;;2.00;;
13592;SDS011;6867;50.998;4.250;2023-03-14T05:08:09;4.20;;;2.00;;
13592;SDS011;6867;50.998;4.250;2023-03-14T05:10:36;4.47;;;2.10;;
13592;SDS011;6867;50.998;4.250;2023-03-14T05:13:03;7.10;;;2.47;;
13592;SDS011;6867;50.998;4.250;2023-03-14T05:15:31;4.40;;;2.30;;
13592;SDS011;6867;50.998;4.250;2023-03-14T05:17:58;7.20;;;2.40;;
13592;SDS011;6867;50.998;4.250;2023-03-14T05:20:25;6.70;;;3.07;;
13592;SDS011;6867;50.998;4.250;2023-03-14T05:22:51;5.13;;;2.20;;
13592;SDS011;6867;50.998;4.250;2023-03-14T05:25:18;5.33;;;3.00;;
13592;SDS011;6867;50.998;4.250;2023-03-14T05:27:45;5.67;;;2.30;;
13592;SDS011;6867;50.998;4.250;2023-03-14T05:30:12;7.33;;;3.17;;
13592;SDS011;6867;50.998;4.250;2023-03-14T05:32:40;4.83;;;2.57;;
13592;SDS011;6867;50.998;4.250;2023-03-14T05:35:07;6.67;;;2.70;;
13592;SDS011;6867;50.998;4.250;2023-03-14T05:37:34;5.17;;;2.57;;
13592;SDS011;6867;50.998;4.250;2023-03-14T05:40:01;6.23;;;3.37;;
13592;SDS011;6867;50.998;4.250;2023-03-14T05:42:29;4.63;;;2.27;;
13592;SDS011;6867;50.998;4.250;2023-03-14T05:44:56;4.60;;;2.63;;
13592;SDS011;6867;50.998;4.250;2023-03-14T05:47:23;6.37;;;2.63;;
13592;SDS011;6867;50.998;4.250;2023-03-14T05:49:52;4.53;;;2.27;;
13592;SDS011;6867;50.998;4.250;2023-03-14T05:52:18;3.27;;;2.13;;
13592;SDS011;6867;50.998;4.250;2023-03-14T05:54:45;4.10;;;2.47;;
13592;SDS011;6867;50.998;4.250;2023-03-14T05:57:12;6.03;;;3.97;;
13592;SDS011;6867;50.998;4.250;2023-03-14T05:59:38;9.50;;;4.53;;
13592;SDS011;6867;50.998;4.250;2023-03-14T06:02:05;6.80;;;4.43;;
13592;SDS011;6867;50.998;4.250;2023-03-14T06:04:32;5.63;;;2.90;;
13592;SDS011;6867;50.998;4.250;2023-03-14T06:07:00;3.97;;;2.90;;
13592;SDS011;6867;50.998;4.250;2023-03-14T06:09:26;4.53;;;2.50;;
13592;SDS011;6867;50.998;4.250;2023-03-14T06:11:53;3.80;;;2.20;;
13592;SDS011;6867;50.998;4.250;2023-03-14T06:14:20;6.73;;;3.07;;
13592;SDS011;6867;50.998;4.250;2023-03-14T06:16:47;11.20;;;5.83;;
13592;SDS011;6867;50.998;4.250;2023-03-14T06:19:14;13.30;;;7.47;;
13592;SDS011;6867;50.998;4.250;2023-03-14T06:21:41;5.67;;;3.40;;
13592;SDS011;6867;50.998;4.250;2023-03-14T06:24:09;7.60;;;3.83;;
13592;SDS011;6867;50.998;4.250;2023-03-14T06:26:36;5.60;;;2.50;;
13592;SDS011;6867;50.998;4.250;2023-03-14T06:29:03;4.20;;;2.20;;
13592;SDS011;6867;50.998;4.250;2023-03-14T06:31:30;9.20;;;4.33;;
13592;SDS011;6867;50.998;4.250;2023-03-14T06:33:57;3.87;;;2.80;;
13592;SDS011;6867;50.998;4.250;2023-03-14T06:36:24;1.73;;;0.90;;
13592;SDS011;6867;50.998;4.250;2023-03-14T06:38:50;1.03;;;0.80;;
13592;SDS011;6867;50.998;4.250;2023-03-14T06:41:18;1.77;;;0.70;;
13592;SDS011;6867;50.998;4.250;2023-03-14T06:43:45;0.93;;;0.90;;
13592;SDS011;6867;50.998;4.250;2023-03-14T06:46:12;1.27;;;0.90;;
13592;SDS011;6867;50.998;4.250;2023-03-14T06:48:40;0.90;;;0.90;;
13592;SDS011;6867;50.998;4.250;2023-03-14T06:51:07;1.60;;;0.93;;
13592;SDS011;6867;50.998;4.250;2023-03-14T06:53:33;2.80;;;1.30;;
13592;SDS011;6867;50.998;4.250;2023-03-14T06:56:00;1.93;;;1.10;;
13592;SDS011;6867;50.998;4.250;2023-03-14T06:58:28;2.10;;;1.30;;
13592;SDS011;6867;50.998;4.250;2023-03-14T07:00:55;4.23;;;1.70;;
13592;SDS011;6867;50.998;4.250;2023-03-14T07:03:22;4.67;;;2.33;;
13592;SDS011;6867;50.998;4.250;2023-03-14T07:05:49;3.63;;;2.80;;
13592;SDS011;6867;50.998;4.250;2023-03-14T07:08:16;3.93;;;2.73;;
13592;SDS011;6867;50.998;4.250;2023-03-14T07:10:42;6.67;;;4.03;;
13592;SDS011;6867;50.998;4.250;2023-03-14T07:13:09;6.77;;;4.07;;
13592;SDS011;6867;50.998;4.250;2023-03-14T07:15:37;6.67;;;4.43;;
13592;SDS011;6867;50.998;4.250;2023-03-14T07:18:04;11.17;;;3.73;;
13592;SDS011;6867;50.998;4.250;2023-03-14T07:20:31;5.70;;;2.97;;
13592;SDS011;6867;50.998;4.250;2023-03-14T07:22:58;6.47;;;3.17;;
13592;SDS011;6867;50.998;4.250;2023-03-14T07:25:27;8.90;;;3.30;;
13592;SDS011;6867;50.998;4.250;2023-03-14T07:27:54;6.87;;;3.30;;
13592;SDS011;6867;50.998;4.250;2023-03-14T07:30:21;5.40;;;2.53;;
13592;SDS011;6867;50.998;4.250;2023-03-14T07:32:49;6.57;;;2.57;;
13592;SDS011;6867;50.998;4.250;2023-03-14T07:35:16;5.90;;;2.90;;
13592;SDS011;6867;50.998;4.250;2023-03-14T07:37:43;6.17;;;2.90;;
13592;SDS011;6867;50.998;4.250;2023-03-14T07:40:10;4.83;;;3.10;;
13592;SDS011;6867;50.998;4.250;2023-03-14T07:42:40;7.00;;;3.03;;
13592;SDS011;6867;50.998;4.250;2023-03-14T07:45:07;4.90;;;2.90;;
13592;SDS011;6867;50.998;4.250;2023-03-14T07:47:35;6.30;;;3.10;;
13592;SDS011;6867;50.998;4.250;2023-03-14T07:50:04;6.50;;;2.93;;
13592;SDS011;6867;50.998;4.250;2023-03-14T07:52:31;11.23;;;2.97;;
13592;SDS011;6867;50.998;4.250;2023-03-14T07:54:58;4.50;;;2.87;;
13592;SDS011;6867;50.998;4.250;2023-03-14T07:57:25;6.97;;;2.80;;
13592;SDS011;6867;50.998;4.250;2023-03-14T07:59:52;7.03;;;2.93;;
13592;SDS011;6867;50.998;4.250;2023-03-14T08:02:18;6.13;;;2.37;;
13592;SDS011;6867;50.998;4.250;2023-03-14T08:04:47;5.90;;;3.10;;
13592;SDS011;6867;50.998;4.250;2023-03-14T08:07:15;4.57;;;2.90;;
13592;SDS011;6867;50.998;4.250;2023-03-14T08:09:42;5.97;;;3.00;;
13592;SDS011;6867;50.998;4.250;2023-03-14T08:12:09;8.23;;;3.33;;
13592;SDS011;6867;50.998;4.250;2023-03-14T08:14:36;6.80;;;3.27;;
13592;SDS011;6867;50.998;4.250;2023-03-14T08:17:02;4.20;;;3.20;;
13592;SDS011;6867;50.998;4.250;2023-03-14T08:19:30;5.37;;;2.80;;
13592;SDS011;6867;50.998;4.250;2023-03-14T08:21:56;4.07;;;2.80;;
13592;SDS011;6867;50.998;4.250;2023-03-14T08:24:25;8.03;;;4.03;;
13592;SDS011;6867;50.998;4.250;2023-03-14T08:26:52;7.33;;;3.67;;
13592;SDS011;6867;50.998;4.250;2023-03-14T08:29:18;4.67;;;2.97;;
13592;SDS011;6867;50.998;4.250;2023-03-14T08:31:45;6.50;;;3.20;;
13592;SDS011;6867;50.998;4.250;2023-03-14T08:34:13;5.30;;;3.47;;
13592;SDS011;6867;50.998;4.250;2023-03-14T08:36:40;9.87;;;3.80;;
13592;SDS011;6867;50.998;4.250;2023-03-14T08:39:07;8.70;;;4.13;;
13592;SDS011;6867;50.998;4.250;2023-03-14T08:41:35;6.73;;;3.37;;
13592;SDS011;6867;50.998;4.250;2023-03-14T08:44:05;6.10;;;2.77;;
13592;SDS011;6867;50.998;4.250;2023-03-14T08:46:32;4.10;;;2.30;;
13592;SDS011;6867;50.998;4.250;2023-03-14T08:48:58;4.83;;;2.23;;
13592;SDS011;6867;50.998;4.250;2023-03-14T08:51:25;6.37;;;2.17;;
13592;SDS011;6867;50.998;4.250;2023-03-14T08:53:52;4.97;;;1.93;;
13592;SDS011;6867;50.998;4.250;2023-03-14T08:56:18;4.67;;;2.10;;
13592;SDS011;6867;50.998;4.250;2023-03-14T08:58:46;4.10;;;2.00;;
13592;SDS011;6867;50.998;4.250;2023-03-14T09:01:13;3.43;;;2.10;;
13592;SDS011;6867;50.998;4.250;2023-03-14T09:03:40;4.03;;;1.73;;
13592;SDS011;6867;50.998;4.250;2023-03-14T09:06:07;5.53;;;2.10;;
13592;SDS011;6867;50.998;4.250;2023-03-14T09:08:35;3.63;;;2.30;;
13592;SDS011;6867;50.998;4.250;2023-03-14T09:11:02;6.83;;;3.23;;
13592;SDS011;6867;50.998;4.250;2023-03-14T09:13:29;6.47;;;2.63;;
13592;SDS011;6867;50.998;4.250;2023-03-14T09:15:57;3.63;;;2.90;;
13592;SDS011;6867;50.998;4.250;2023-03-14T09:18:24;4.60;;;3.10;;
13592;SDS011;6867;50.998;4.250;2023-03-14T09:20:51;9.00;;;3.43;;
13592;SDS011;6867;50.998;4.250;2023-03-14T09:23:18;4.17;;;2.73;;
13592;SDS011;6867;50.998;4.250;2023-03-14T09:25:44;6.27;;;3.00;;
13592;SDS011;6867;50.998;4.250;2023-03-14T09:28:11;5.47;;;2.97;;
13592;SDS011;6867;50.998;4.250;2023-03-14T09:30:38;6.33;;;3.50;;
13592;SDS011;6867;50.998;4.250;2023-03-14T09:33:06;5.83;;;3.17;;
13592;SDS011;6867;50.998;4.250;2023-03-14T09:35:33;4.80;;;3.13;;
13592;SDS011;6867;50.998;4.250;2023-03-14T09:38:00;7.77;;;3.27;;
13592;SDS011;6867;50.998;4.250;2023-03-14T09:40:27;5.23;;;3.10;;
13592;SDS011;6867;50.998;4.250;2023-03-14T09:42:59;5.00;;;2.97;;
13592;SDS011;6867;50.998;4.250;2023-03-14T09:45:27;6.10;;;3.13;;
13592;SDS011;6867;50.998;4.250;2023-03-14T09:47:56;8.37;;;2.80;;
13592;SDS011;6867;50.998;4.250;2023-03-14T09:50:26;5.73;;;2.83;;
13592;SDS011;6867;50.998;4.250;2023-03-14T09:52:59;8.90;;;3.10;;
13592;SDS011;6867;50.998;4.250;2023-03-14T09:55:29;10.20;;;3.00;;
13592;SDS011;6867;50.998;4.250;2023-03-14T09:57:56;9.10;;;2.57;;
13592;SDS011;6867;50.998;4.250;2023-03-14T10:00:26;6.87;;;2.50;;
13592;SDS011;6867;50.998;4.250;2023-03-14T10:02:56;5.50;;;2.73;;
13592;SDS011;6867;50.998;4.250;2023-03-14T10:05:28;7.53;;;2.60;;
13592;SDS011;6867;50.998;4.250;2023-03-14T10:07:55;5.67;;;2.50;;
13592;SDS011;6867;50.998;4.250;2023-03-14T10:10:23;6.53;;;2.80;;
13592;SDS011;6867;50.998;4.250;2023-03-14T10:12:54;7.03;;;2.57;;
13592;SDS011;6867;50.998;4.250;2023-03-14T10:15:24;4.67;;;1.47;;
13592;SDS011;6867;50.998;4.250;2023-03-14T10:17:51;1.93;;;1.17;;
13592;SDS011;6867;50.998;4.250;2023-03-14T10:20:30;1.30;;;0.73;;
13592;SDS011;6867;50.998;4.250;2023-03-14T10:22:59;1.83;;;1.17;;
13592;SDS011;6867;50.998;4.250;2023-03-14T10:25:28;3.23;;;1.20;;
13592;SDS011;6867;50.998;4.250;2023-03-14T10:27:56;1.97;;;0.80;;
13592;SDS011;6867;50.998;4.250;2023-03-14T10:30:27;1.43;;;0.70;;
13592;SDS011;6867;50.998;4.250;2023-03-14T10:32:56;2.60;;;1.00;;
13592;SDS011;6867;50.998;4.250;2023-03-14T10:35:23;2.13;;;1.00;;
13592;SDS011;6867;50.998;4.250;2023-03-14T10:37:52;2.00;;;0.93;;
13592;SDS011;6867;50.998;4.250;2023-03-14T10:40:24;3.27;;;1.13;;
13592;SDS011;6867;50.998;4.250;2023-03-14T10:42:54;1.67;;;1.30;;
13592;SDS011;6867;50.998;4.250;2023-03-14T10:45:28;1.13;;;1.03;;
13592;SDS011;6867;50.998;4.250;2023-03-14T10:47:58;2.00;;;1.30;;
13592;SDS011;6867;50.998;4.250;2023-03-14T10:50:31;2.60;;;0.80;;
13592;SDS011;6867;50.998;4.250;2023-03-14T10:53:02;1.03;;;0.70;;
13592;SDS011;6867;50.998;4.250;2023-03-14T10:55:40;1.43;;;0.90;;
13592;SDS011;6867;50.998;4.250;2023-03-14T10:58:17;5.07;;;1.43;;
13592;SDS011;6867;50.998;4.250;2023-03-14T11:00:46;2.27;;;1.10;;
13592;SDS011;6867;50.998;4.250;2023-03-14T11:03:17;2.70;;;1.00;;
13592;SDS011;6867;50.998;4.250;2023-03-14T11:05:46;4.97;;;1.17;;
13592;SDS011;6867;50.998;4.250;2023-03-14T11:08:23;1.27;;;1.17;;
13592;SDS011;6867;50.998;4.250;2023-03-14T11:10:54;7.03;;;1.30;;
13592;SDS011;6867;50.998;4.250;2023-03-14T11:13:29;3.03;;;1.40;;
13592;SDS011;6867;50.998;4.250;2023-03-14T11:16:02;4.63;;;1.57;;
13592;SDS011;6867;50.998;4.250;2023-03-14T11:18:47;2.20;;;1.10;;
13592;SDS011;6867;50.998;4.250;2023-03-14T11:21:21;3.43;;;1.47;;
13592;SDS011;6867;50.998;4.250;2023-03-14T11:24:00;4.07;;;1.70;;
13592;SDS011;6867;50.998;4.250;2023-03-14T11:26:41;2.70;;;1.00;;
13592;SDS011;6867;50.998;4.250;2023-03-14T11:29:16;2.60;;;1.10;;
13592;SDS011;6867;50.998;4.250;2023-03-14T11:31:46;3.87;;;1.10;;
13592;SDS011;6867;50.998;4.250;2023-03-14T11:34:15;1.07;;;1.00;;
13592;SDS011;6867;50.998;4.250;2023-03-14T11:36:46;3.43;;;1.30;;
13592;SDS011;6867;50.998;4.250;2023-03-14T11:39:19;1.40;;;1.20;;
13592;SDS011;6867;50.998;4.250;2023-03-14T11:41:48;2.80;;;1.20;;
13592;SDS011;6867;50.998;4.250;2023-03-14T11:44:17;1.40;;;1.20;;
13592;SDS011;6867;50.998;4.250;2023-03-14T11:46:46;3.90;;;1.30;;
13592;SDS011;6867;50.998;4.250;2023-03-14T11:49:20;2.67;;;1.30;;
13592;SDS011;6867;50.998;4.250;2023-03-14T11:51:56;3.37;;;1.27;;
13592;SDS011;6867;50.998;4.250;2023-03-14T11:54:31;3.97;;;1.33;;
13592;SDS011;6867;50.998;4.250;2023-03-14T11:57:10;6.97;;;1.57;;
13592;SDS011;6867;50.998;4.250;2023-03-14T11:59:41;3.33;;;1.60;;
13592;SDS011;6867;50.998;4.250;2023-03-14T12:02:21;2.70;;;1.50;;
13592;SDS011;6867;50.998;4.250;2023-03-14T12:04:53;2.07;;;1.20;;
13592;SDS011;6867;50.998;4.250;2023-03-14T12:07:39;9.67;;;2.10;;
13592;SDS011;6867;50.998;4.250;2023-03-14T12:10:16;10.73;;;2.37;;
13592;SDS011;6867;50.998;4.250;2023-03-14T12:12:43;6.00;;;1.97;;
13592;SDS011;6867;50.998;4.250;2023-03-14T12:15:17;9.13;;;2.30;;
13592;SDS011;6867;50.998;4.250;2023-03-14T12:17:45;9.57;;;1.77;;
13592;SDS011;6867;50.998;4.250;2023-03-14T12:20:15;17.53;;;2.20;;
13592;SDS011;6867;50.998;4.250;2023-03-14T12:22:44;10.40;;;1.90;;
13592;SDS011;6867;50.998;4.250;2023-03-14T12:25:14;11.00;;;2.00;;
13592;SDS011;6867;50.998;4.250;2023-03-14T12:27:49;13.13;;;2.17;;
13592;SDS011;6867;50.998;4.250;2023-03-14T12:30:31;14.90;;;2.03;;
13592;SDS011;6867;50.998;4.250;2023-03-14T12:36:18;14.17;;;2.63;;
13592;SDS011;6867;50.998;4.250;2023-03-14T12:39:19;11.10;;;2.00;;
13592;SDS011;6867;50.998;4.250;2023-03-14T12:41:53;8.00;;;1.70;;
13592;SDS011;6867;50.998;4.250;2023-03-14T12:44:39;10.20;;;1.87;;
13592;SDS011;6867;50.998;4.250;2023-03-14T12:50:32;1.83;;;1.43;;
13592;SDS011;6867;50.998;4.250;2023-03-14T12:56:05;7.50;;;2.73;;
13592;SDS011;6867;50.998;4.250;2023-03-14T12:58:47;12.73;;;2.70;;
13592;SDS011;6867;50.998;4.250;2023-03-14T13:01:25;11.80;;;2.60;;
13592;SDS011;6867;50.998;4.250;2023-03-14T13:03:52;13.90;;;3.23;;
13592;SDS011;6867;50.998;4.250;2023-03-14T13:12:13;13.00;;;2.53;;
13592;SDS011;6867;50.998;4.250;2023-03-14T13:14:45;13.70;;;3.07;;
13592;SDS011;6867;50.998;4.250;2023-03-14T13:17:14;12.67;;;2.90;;
13592;SDS011;6867;50.998;4.250;2023-03-14T13:19:48;12.10;;;2.57;;
13592;SDS011;6867;50.998;4.250;2023-03-14T13:22:18;18.03;;;3.20;;
13592;SDS011;6867;50.998;4.250;2023-03-14T13:24:48;20.77;;;3.00;;
13592;SDS011;6867;50.998;4.250;2023-03-14T13:27:16;11.07;;;2.00;;
13592;SDS011;6867;50.998;4.250;2023-03-14T13:29:47;13.00;;;2.40;;
13592;SDS011;6867;50.998;4.250;2023-03-14T13:32:16;25.80;;;3.40;;
13592;SDS011;6867;50.998;4.250;2023-03-14T13:34:45;16.63;;;2.90;;
13592;SDS011;6867;50.998;4.250;2023-03-14T13:37:16;12.97;;;2.77;;
13592;SDS011;6867;50.998;4.250;2023-03-14T13:39:48;14.87;;;3.20;;
13592;SDS011;6867;50.998;4.250;2023-03-14T13:42:16;10.67;;;2.43;;
13592;SDS011;6867;50.998;4.250;2023-03-14T13:44:44;12.93;;;5.80;;
13592;SDS011;6867;50.998;4.250;2023-03-14T13:47:14;15.90;;;8.17;;
13592;SDS011;6867;50.998;4.250;2023-03-14T13:49:46;7.00;;;2.70;;
13592;SDS011;6867;50.998;4.250;2023-03-14T13:52:21;6.67;;;2.43;;
13592;SDS011;6867;50.998;4.250;2023-03-14T13:54:52;9.67;;;2.10;;
13592;SDS011;6867;50.998;4.250;2023-03-14T13:57:20;9.87;;;1.80;;
13592;SDS011;6867;50.998;4.250;2023-03-14T13:59:57;10.20;;;2.40;;
13592;SDS011;6867;50.998;4.250;2023-03-14T14:02:26;8.33;;;1.80;;
13592;SDS011;6867;50.998;4.250;2023-03-14T14:04:54;9.63;;;2.33;;
13592;SDS011;6867;50.998;4.250;2023-03-14T14:07:22;11.87;;;1.67;;
13592;SDS011;6867;50.998;4.250;2023-03-14T14:09:49;8.77;;;1.70;;
13592;SDS011;6867;50.998;4.250;2023-03-14T14:12:18;5.53;;;1.40;;
13592;SDS011;6867;50.998;4.250;2023-03-14T14:14:51;8.83;;;1.80;;
13592;SDS011;6867;50.998;4.250;2023-03-14T14:17:20;8.83;;;1.90;;
13592;SDS011;6867;50.998;4.250;2023-03-14T14:19:51;5.07;;;1.23;;
13592;SDS011;6867;50.998;4.250;2023-03-14T14:22:19;7.27;;;1.23;;
13592;SDS011;6867;50.998;4.250;2023-03-14T14:24:46;8.23;;;1.20;;
13592;SDS011;6867;50.998;4.250;2023-03-14T14:27:14;1.17;;;0.67;;
13592;SDS011;6867;50.998;4.250;2023-03-14T14:29:42;3.00;;;0.67;;
13592;SDS011;6867;50.998;4.250;2023-03-14T14:32:12;1.37;;;0.70;;
13592;SDS011;6867;50.998;4.250;2023-03-14T14:34:40;1.33;;;0.70;;
13592;SDS011;6867;50.998;4.250;2023-03-14T14:37:18;1.20;;;0.73;;
13592;SDS011;6867;50.998;4.250;2023-03-14T14:39:45;0.57;;;0.37;;
13592;SDS011;6867;50.998;4.250;2023-03-14T14:42:13;0.20;;;0.20;;
13592;SDS011;6867;50.998;4.250;2023-03-14T14:44:41;4.03;;;1.00;;
13592;SDS011;6867;50.998;4.250;2023-03-14T14:47:12;0.90;;;0.60;;
13592;SDS011;6867;50.998;4.250;2023-03-14T14:49:39;4.80;;;1.57;;
13592;SDS011;6867;50.998;4.250;2023-03-14T14:52:09;1.30;;;0.70;;
13592;SDS011;6867;50.998;4.250;2023-03-14T14:54:42;1.30;;;0.60;;
13592;SDS011;6867;50.998;4.250;2023-03-14T14:57:17;3.37;;;0.60;;
13592;SDS011;6867;50.998;4.250;2023-03-14T14:59:47;0.33;;;0.33;;
13592;SDS011;6867;50.998;4.250;2023-03-14T15:02:30;3.13;;;0.60;;
13592;SDS011;6867;50.998;4.250;2023-03-14T15:05:03;2.03;;;0.53;;
13592;SDS011;6867;50.998;4.250;2023-03-14T15:07:30;1.50;;;0.60;;
13592;SDS011;6867;50.998;4.250;2023-03-14T15:09:58;3.93;;;1.63;;
13592;SDS011;6867;50.998;4.250;2023-03-14T15:12:25;0.67;;;0.53;;
13592;SDS011;6867;50.998;4.250;2023-03-14T15:14:51;1.87;;;0.50;;
13592;SDS011;6867;50.998;4.250;2023-03-14T15:17:22;2.33;;;0.60;;
13592;SDS011;6867;50.998;4.250;2023-03-14T15:19:49;0.23;;;0.23;;
13592;SDS011;6867;50.998;4.250;2023-03-14T15:22:16;1.43;;;0.60;;
13592;SDS011;6867;50.998;4.250;2023-03-14T15:24:42;1.37;;;0.63;;
13592;SDS011;6867;50.998;4.250;2023-03-14T15:27:13;2.27;;;0.83;;
13592;SDS011;6867;50.998;4.250;2023-03-14T15:29:41;2.03;;;0.67;;